Latest Weather Observations for Grafton AgRS

IDN60801

Issued at 9:02 pm EST Monday 6 July 2015 (issued every 30 minutes, with the page automatically refreshed every 10 minutes)

About weather observations | Map of weather stations | Latest weather observations for NSW | Other Formats
Station Details ID: 058077 Name: GRAFTON RESEARCH STN Lat: -29.62 Lon: 152.96 Height: 25.0 m
Data from the previous 72 hours. | See also: Recent months for locations in New South Wales
Date/Time
EST
Temp
°C
App
Temp
°C
Dew
Point
Rel
Hum
%
Delta-T
°C
Wind Press
QNH
hPa
Press
MSL
hPa
Rain
since 9 am
mm
Dir
 
Spd
km/h
Gust
km/h
Spd
kts
Gust
kts
06/09:00pm 16.1 12.7 6.0 51 4.9 NW 13 15 7 8 - - 0.2
06/08:30pm 16.7 14.1 5.9 49 5.2 NNW 9 15 5 8 - - 0.2
06/08:00pm 16.9 14.0 6.7 51 5.0 NNW 11 13 6 7 - - 0.2
06/07:30pm 16.5 13.4 7.2 54 4.6 NW 13 17 7 9 - - 0.2
06/07:00pm 17.2 13.7 7.0 51 5.1 NW 15 19 8 10 - - 0.2
06/06:30pm 17.4 14.0 7.5 52 5.0 NW 15 20 8 11 - - 0.2
06/06:00pm 17.9 14.8 7.3 50 5.3 WNW 13 20 7 11 - - 0.2
06/05:30pm 18.4 15.7 7.5 49 5.5 WNW 11 13 6 7 - - 0.2
06/05:00pm 18.6 16.9 9.7 56 4.7 NW 9 11 5 6 - - 0.2
06/04:30pm 21.0 20.8 8.9 46 6.4 CALM 0 0 0 0 - - 0.2
06/04:00pm 23.0 22.4 10.4 45 6.9 WNW 4 7 2 4 - - 0.2
06/03:30pm 23.2 21.8 9.6 42 7.4 NW 7 11 4 6 - - 0.2
06/03:00pm 22.8 21.0 9.6 43 7.1 NW 9 13 5 7 - - 0.2
06/02:30pm 22.5 20.2 9.0 42 7.2 N 11 20 6 11 - - 0.2
06/02:00pm 22.6 21.6 11.0 48 6.4 N 7 13 4 7 - - 0.2
06/01:30pm 21.8 20.4 10.9 50 6.0 NNW 9 17 5 9 - - 0.2
06/01:00pm 21.3 19.9 10.8 51 5.8 N 9 17 5 9 - - 0.2
06/12:30pm 20.8 20.0 11.7 56 5.1 NNE 7 11 4 6 - - 0.2
06/12:00pm 18.9 17.8 11.9 64 3.9 NNE 9 13 5 7 - - 0.2
06/11:30am 17.3 16.2 10.7 65 3.5 NE 7 11 4 6 - - 0.2
06/11:00am 15.3 14.7 10.3 72 2.6 E 4 9 2 5 - - 0.0
06/10:30am 14.3 13.6 10.1 76 2.2 ESE 4 7 2 4 - - 0.0
06/10:00am 13.9 13.8 9.5 75 2.3 CALM 0 6 0 3 - - 0.0
06/09:30am 11.4 10.5 9.1 86 1.1 W 4 6 2 3 - - 0.0
06/09:00am 10.0 8.5 9.2 95 0.4 WSW 7 11 4 6 - - 0.2
06/08:30am 8.4 6.7 8.4 100 0.0 W 7 9 4 5 - - 0.2
06/08:00am 5.4 4.3 5.1 98 0.1 CALM 0 6 0 3 - - 0.2
06/07:30am 4.7 3.1 4.3 97 0.2 WNW 2 7 1 4 - - 0.2
06/07:00am 4.8 3.5 4.2 96 0.3 CALM 0 0 0 0 - - 0.2
06/06:30am 5.6 4.5 5.2 97 0.2 CALM 0 0 0 0 - - 0.2
06/06:00am 6.4 4.2 6.0 97 0.2 WNW 7 9 4 5 - - 0.2
06/05:30am 5.9 3.7 5.2 95 0.3 W 6 9 3 5 - - 0.2
06/05:00am 6.5 4.4 5.9 96 0.3 W 6 9 3 5 - - 0.2
06/04:30am 7.2 4.4 6.9 98 0.1 W 11 13 6 7 - - 0.2
06/04:00am 6.8 4.7 6.5 98 0.1 WNW 7 9 4 5 - - 0.2
06/03:30am 7.5 5.5 7.2 98 0.1 NNW 7 13 4 7 - - 0.2
06/03:00am 7.8 6.1 7.5 98 0.1 W 6 7 3 4 - - 0.2
06/02:30am 8.1 6.3 7.8 98 0.1 WNW 7 9 4 5 - - 0.2
06/02:00am 7.9 5.6 7.6 98 0.1 WNW 9 11 5 6 - - 0.2
06/01:30am 8.4 6.8 8.1 98 0.1 WNW 6 9 3 5 - - 0.2
06/01:00am 8.0 7.4 7.4 96 0.3 CALM 0 0 0 0 - - 0.2
06/12:30am 9.0 7.9 8.5 97 0.2 WNW 4 7 2 4 - - 0.2
06/12:00am 9.2 7.6 8.7 97 0.2 NW 7 9 4 5 - - 0.2
 
Date/Time
EST
Temp
°C
App
Temp
°C
Dew
Point
Rel
Hum
%
Delta-T
°C
Wind Press
QNH
hPa
Press
MSL
hPa
Rain
since 9 am
mm
Dir
 
Spd
km/h
Gust
km/h
Spd
kts
Gust
kts
05/11:30pm 9.3 7.8 8.5 95 0.4 W 6 7 3 4 - - 0.2
05/11:00pm 10.1 8.7 8.9 92 0.6 WSW 6 7 3 4 - - 0.2
05/10:30pm 11.7 10.1 10.1 90 0.8 WNW 9 13 5 7 - - 0.2
05/10:00pm 11.1 9.4 9.9 92 0.6 WNW 9 11 5 6 - - 0.2
05/09:30pm 11.3 10.0 10.0 92 0.7 NW 7 9 4 5 - - 0.2
05/09:00pm 11.9 10.6 10.1 89 0.9 W 7 9 4 5 - - 0.2
05/08:30pm 12.5 11.5 10.2 86 1.2 WSW 6 9 3 5 - - 0.2
05/08:00pm 12.8 11.8 10.3 85 1.3 SW 6 7 3 4 - - 0.2
05/07:30pm 13.1 11.9 10.3 83 1.5 SW 7 9 4 5 - - 0.2
05/07:00pm 13.8 14.0 10.6 81 1.7 CALM 0 0 0 0 - - 0.2
05/06:30pm 13.5 13.0 10.7 83 1.5 S 4 7 2 4 - - 0.2
05/06:00pm 15.6 15.2 11.2 75 2.4 NE 4 7 2 4 - - 0.2
05/05:30pm 16.1 15.3 11.1 72 2.7 NE 6 7 3 4 - - 0.2
05/05:00pm 17.4 16.8 10.5 64 3.7 NE 4 7 2 4 - - 0.2
05/04:30pm 19.7 19.6 10.9 57 4.8 NE 2 6 1 3 - - 0.2
05/04:00pm 20.3 19.9 11.2 56 5.0 NE 4 9 2 5 - - 0.2
05/03:30pm 20.8 19.7 10.6 52 5.6 NNE 7 11 4 6 - - 0.2
05/03:00pm 21.1 19.5 10.3 50 5.9 N 9 13 5 7 - - 0.2
05/02:30pm 21.3 20.2 10.5 50 5.9 N 7 11 4 6 - - 0.2
05/02:00pm 20.9 19.8 10.7 52 5.6 N 7 13 4 7 - - 0.2
05/01:30pm 21.0 19.8 10.2 50 5.9 NNE 7 11 4 6 - - 0.2
05/01:00pm 19.8 18.7 10.0 53 5.3 ENE 6 13 3 7 - - 0.2
05/12:30pm 20.0 19.2 11.2 57 4.8 NNE 6 11 3 6 - - 0.2
05/12:00pm 18.3 18.2 9.4 56 4.7 CALM 0 0 0 0 - - 0.2
05/11:30am 17.3 17.1 9.2 59 4.2 CALM 0 0 0 0 - - 0.0
05/11:00am 16.6 16.6 9.8 64 3.6 CALM 0 0 0 0 - - 0.0
05/10:30am 14.6 13.3 9.8 73 2.5 WSW 7 11 4 6 - - 0.0
05/10:00am 13.5 11.5 8.8 73 2.4 W 9 11 5 6 - - 0.0
05/09:30am 12.1 10.3 9.3 83 1.4 W 9 13 5 7 - - 0.0
05/09:00am 10.9 9.2 8.5 85 1.2 W 7 11 4 6 - - 0.0
05/08:30am 9.2 7.5 8.3 94 0.4 WSW 7 7 4 4 - - 0.0
05/08:00am 8.1 7.6 7.7 97 0.2 CALM 0 6 0 3 - - 0.0
05/07:30am 7.4 5.4 7.1 98 0.1 WNW 7 13 4 7 - - 0.0
05/07:00am 6.6 4.0 6.3 98 0.1 NW 9 13 5 7 - - 0.0
05/06:30am 6.7 5.5 6.6 99 0.0 W 2 9 1 5 - - 0.0
05/06:00am 6.6 4.5 6.5 99 0.0 WNW 7 7 4 4 - - 0.0
05/05:30am 6.5 4.5 6.2 98 0.1 W 6 7 3 4 - - 0.0
05/05:00am 5.9 3.7 5.3 96 0.3 SW 6 9 3 5 - - 0.0
05/04:30am 6.7 5.8 6.1 96 0.3 CALM 0 0 0 0 - - 0.0
05/04:00am 7.5 5.5 7.1 97 0.2 NW 7 11 4 6 - - 0.0
05/03:30am 7.7 5.7 7.0 95 0.3 WNW 7 11 4 6 - - 0.0
05/03:00am 8.7 6.5 7.8 94 0.4 NW 9 13 5 7 - - 0.0
05/02:30am 8.3 6.1 7.9 97 0.2 NW 9 13 5 7 - - 0.0
05/02:00am 8.2 7.3 7.6 96 0.3 WSW 2 7 1 4 - - 0.0
05/01:30am 8.8 8.4 8.2 96 0.3 CALM 0 0 0 0 - - 0.0
05/01:00am 9.1 7.1 8.5 96 0.3 W 9 11 5 6 - - 0.0
05/12:30am 9.3 7.4 9.0 98 0.1 WNW 9 11 5 6 - - 0.0
05/12:00am 9.2 7.2 8.7 97 0.2 NW 9 13 5 7 - - 0.0
 
Date/Time
EST
Temp
°C
App
Temp
°C
Dew
Point
Rel
Hum
%
Delta-T
°C
Wind Press
QNH
hPa
Press
MSL
hPa
Rain
since 9 am
mm
Dir
 
Spd
km/h
Gust
km/h
Spd
kts
Gust
kts
04/11:30pm 9.1 7.6 8.5 96 0.3 W 6 7 3 4 - - 0.0
04/11:00pm 9.6 8.2 9.0 96 0.3 WNW 6 11 3 6 - - 0.0
04/10:30pm 9.9 8.6 9.3 96 0.3 WNW 6 11 3 6 - - 0.0
04/10:00pm 10.6 9.8 9.8 95 0.4 NW 4 11 2 6 - - 0.0
04/09:30pm 11.2 11.3 10.3 94 0.5 CALM 0 0 0 0 - - 0.0
04/09:00pm 10.9 9.8 10.0 94 0.5 WNW 6 7 3 4 - - 0.0
04/08:30pm 10.8 9.7 10.0 95 0.4 SW 6 7 3 4 - - 0.0
04/08:00pm 10.0 8.2 8.1 88 0.9 S 7 11 4 6 - - 0.0
04/07:30pm 13.1 13.1 11.0 87 1.1 N 2 6 1 3 - - 0.0
04/07:00pm 12.7 13.0 10.8 88 1.0 CALM 0 0 0 0 - - 0.0
04/06:30pm 13.2 12.3 10.7 85 1.3 N 6 7 3 4 - - 0.0
04/06:00pm 14.2 13.4 11.0 81 1.7 N 6 9 3 5 - - 0.0
04/05:30pm 15.1 14.2 10.5 74 2.4 NNE 6 7 3 4 - - 0.0
04/05:00pm 16.3 15.6 10.2 67 3.2 NNE 4 9 2 5 - - 0.0
04/04:30pm 18.2 17.2 10.3 60 4.2 NNE 6 9 3 5 - - 0.0
04/04:00pm 19.4 18.3 10.1 55 5.0 NNE 6 11 3 6 - - 0.0
04/03:30pm 19.9 18.6 10.0 53 5.3 NNE 7 11 4 6 - - 0.0
04/03:00pm 19.6 18.1 9.2 51 5.5 NE 7 11 4 6 - - 0.0
04/02:30pm 20.7 20.1 10.5 52 5.5 E 4 7 2 4 - - 0.0
04/02:00pm 20.6 19.8 9.8 50 5.8 N 4 9 2 5 - - 0.0
04/01:30pm 20.1 20.1 9.9 52 5.5 CALM 0 0 0 0 - - 0.0
04/01:00pm 19.5 18.2 10.0 54 5.1 NNW 7 13 4 7 - - 0.0
04/12:30pm 18.7 17.2 9.2 54 5.0 WNW 7 11 4 6 - - 0.0
04/12:00pm 17.8 16.3 9.2 57 4.5 NW 7 13 4 7 - - 0.0
04/11:30am 16.5 14.6 9.2 62 3.8 W 9 15 5 8 - - 0.0
04/11:00am 15.2 13.3 8.9 66 3.2 W 9 15 5 8 - - 0.0
04/10:30am 14.1 12.1 8.5 69 2.8 WNW 9 13 5 7 - - 0.0
04/10:00am 12.7 10.2 8.2 74 2.2 W 11 15 6 8 - - 0.0
04/09:30am 11.4 9.4 8.6 83 1.4 WNW 9 11 5 6 - - 0.0
04/09:00am 10.1 7.6 8.2 88 0.9 W 11 13 6 7 - - 0.0
04/08:30am 8.9 6.6 7.4 90 0.7 WNW 9 11 5 6 - - 0.0
04/08:00am 7.6 5.3 7.3 98 0.1 WNW 9 11 5 6 - - 0.0
04/07:30am 6.2 3.9 5.9 98 0.1 WNW 7 11 4 6 - - 0.0
04/07:00am 6.0 3.7 5.6 97 0.2 WNW 7 9 4 5 - - 0.0
04/06:30am 6.1 5.1 5.5 96 0.3 CALM 0 6 0 3 - - 0.0
04/06:00am 6.3 3.7 5.9 97 0.2 W 9 13 5 7 - - 0.0
04/05:30am 5.9 3.5 5.3 96 0.3 W 7 11 4 6 - - 0.0
04/05:00am 6.2 3.5 5.6 96 0.3 WNW 9 11 5 6 - - 0.0
04/04:30am 6.6 3.6 5.9 95 0.3 WNW 11 13 6 7 - - 0.0
04/04:00am 7.2 4.3 6.6 96 0.3 NW 11 17 6 9 - - 0.0
04/03:30am 7.0 4.4 6.3 95 0.3 WNW 9 11 5 6 - - 0.0
04/03:00am 7.1 3.8 6.5 96 0.3 W 13 17 7 9 - - 0.0
04/02:30am 7.0 4.8 6.4 96 0.3 WNW 7 11 4 6 - - 0.0
04/02:00am 7.3 3.7 6.7 96 0.3 WNW 15 19 8 10 - - 0.0
04/01:30am 7.2 4.4 6.8 97 0.2 W 11 15 6 8 - - 0.0
04/01:00am 7.2 4.7 6.6 96 0.3 W 9 13 5 7 - - 0.0
04/12:30am 7.6 5.5 6.5 93 0.5 WNW 7 11 4 6 - - 0.0
04/12:00am 8.3 5.9 7.1 92 0.6 WNW 9 13 5 7 - - 0.0
 
Date/Time
EST
Temp
°C
App
Temp
°C
Dew
Point
Rel
Hum
%
Delta-T
°C
Wind Press
QNH
hPa
Press
MSL
hPa
Rain
since 9 am
mm
Dir
 
Spd
km/h
Gust
km/h
Spd
kts
Gust
kts
03/11:30pm 8.5 6.2 7.4 93 0.5 WNW 9 13 5 7 - - 0.0
03/11:00pm 8.5 6.5 7.0 90 0.7 WNW 7 11 4 6 - - 0.0
03/10:30pm 9.3 7.1 7.9 91 0.7 W 9 11 5 6 - - 0.0
03/10:00pm 9.5 7.3 7.8 89 0.8 WNW 9 11 5 6 - - 0.0
03/09:30pm 10.4 8.6 7.8 84 1.3 W 7 9 4 5 - - 0.0

Other Formats:

Comma delimited format used in spreadsheet applications
http://www.bom.gov.au/fwo/IDN60801/IDN60801.95571.axf

JavaScript Object Notation format (JSON) in row-major order
http://www.bom.gov.au/fwo/IDN60801/IDN60801.95571.json